sensor_id;sensor_type;location;lat;lon;timestamp;P1;durP1;ratioP1;P2;durP2;ratioP2
52956;SDS011;38819;42.692;23.342;2023-06-14T00:00:36;5.60;;;5.03;;
52956;SDS011;38819;42.692;23.342;2023-06-14T00:03:05;4.47;;;4.18;;
52956;SDS011;38819;42.692;23.342;2023-06-14T00:05:36;4.68;;;4.05;;
52956;SDS011;38819;42.692;23.342;2023-06-14T00:08:08;7.13;;;4.13;;
52956;SDS011;38819;42.692;23.342;2023-06-14T00:10:34;5.57;;;4.22;;
52956;SDS011;38819;42.692;23.342;2023-06-14T00:13:06;5.47;;;3.83;;
52956;SDS011;38819;42.692;23.342;2023-06-14T00:15:32;7.03;;;4.80;;
52956;SDS011;38819;42.692;23.342;2023-06-14T00:17:58;5.68;;;4.10;;
52956;SDS011;38819;42.692;23.342;2023-06-14T00:20:26;4.35;;;3.95;;
52956;SDS011;38819;42.692;23.342;2023-06-14T00:22:52;4.93;;;4.53;;
52956;SDS011;38819;42.692;23.342;2023-06-14T00:25:19;5.05;;;4.60;;
52956;SDS011;38819;42.692;23.342;2023-06-14T00:27:44;7.18;;;4.75;;
52956;SDS011;38819;42.692;23.342;2023-06-14T00:30:10;5.20;;;4.60;;
52956;SDS011;38819;42.692;23.342;2023-06-14T00:32:36;7.05;;;4.68;;
52956;SDS011;38819;42.692;23.342;2023-06-14T00:35:01;6.55;;;4.95;;
52956;SDS011;38819;42.692;23.342;2023-06-14T00:37:27;7.45;;;4.63;;
52956;SDS011;38819;42.692;23.342;2023-06-14T00:39:52;5.18;;;4.68;;
52956;SDS011;38819;42.692;23.342;2023-06-14T00:42:27;5.75;;;4.68;;
52956;SDS011;38819;42.692;23.342;2023-06-14T00:44:53;7.38;;;5.20;;
52956;SDS011;38819;42.692;23.342;2023-06-14T00:47:20;12.55;;;4.55;;
52956;SDS011;38819;42.692;23.342;2023-06-14T00:49:47;5.60;;;5.10;;
52956;SDS011;38819;42.692;23.342;2023-06-14T00:52:15;6.35;;;4.85;;
52956;SDS011;38819;42.692;23.342;2023-06-14T00:54:41;5.43;;;4.43;;
52956;SDS011;38819;42.692;23.342;2023-06-14T00:57:07;4.43;;;4.13;;
52956;SDS011;38819;42.692;23.342;2023-06-14T00:59:33;6.38;;;4.70;;
52956;SDS011;38819;42.692;23.342;2023-06-14T01:02:03;5.60;;;5.00;;
52956;SDS011;38819;42.692;23.342;2023-06-14T01:04:29;4.88;;;4.57;;
52956;SDS011;38819;42.692;23.342;2023-06-14T01:12:21;6.07;;;4.85;;
52956;SDS011;38819;42.692;23.342;2023-06-14T01:17:21;8.63;;;4.85;;
52956;SDS011;38819;42.692;23.342;2023-06-14T01:19:48;5.78;;;5.00;;
52956;SDS011;38819;42.692;23.342;2023-06-14T01:22:14;6.70;;;5.78;;
52956;SDS011;38819;42.692;23.342;2023-06-14T01:24:39;6.78;;;5.10;;
52956;SDS011;38819;42.692;23.342;2023-06-14T01:27:10;7.65;;;5.53;;
52956;SDS011;38819;42.692;23.342;2023-06-14T01:29:38;5.50;;;5.07;;
52956;SDS011;38819;42.692;23.342;2023-06-14T01:32:04;6.78;;;5.40;;
52956;SDS011;38819;42.692;23.342;2023-06-14T01:36:57;8.25;;;4.35;;
52956;SDS011;38819;42.692;23.342;2023-06-14T01:39:25;6.25;;;5.10;;
52956;SDS011;38819;42.692;23.342;2023-06-14T01:41:51;7.25;;;4.95;;
52956;SDS011;38819;42.692;23.342;2023-06-14T01:44:17;9.52;;;5.80;;
52956;SDS011;38819;42.692;23.342;2023-06-14T01:46:43;5.70;;;4.82;;
52956;SDS011;38819;42.692;23.342;2023-06-14T01:49:10;5.63;;;5.10;;
52956;SDS011;38819;42.692;23.342;2023-06-14T01:51:36;6.90;;;4.80;;
52956;SDS011;38819;42.692;23.342;2023-06-14T01:54:01;6.03;;;5.45;;
52956;SDS011;38819;42.692;23.342;2023-06-14T01:56:27;7.53;;;4.93;;
52956;SDS011;38819;42.692;23.342;2023-06-14T01:58:52;5.32;;;4.78;;
52956;SDS011;38819;42.692;23.342;2023-06-14T02:01:19;9.80;;;5.25;;
52956;SDS011;38819;42.692;23.342;2023-06-14T02:03:46;5.75;;;5.07;;
52956;SDS011;38819;42.692;23.342;2023-06-14T02:06:13;10.13;;;5.50;;
52956;SDS011;38819;42.692;23.342;2023-06-14T02:08:40;5.95;;;5.38;;
52956;SDS011;38819;42.692;23.342;2023-06-14T02:11:06;6.30;;;5.70;;
52956;SDS011;38819;42.692;23.342;2023-06-14T02:13:32;6.85;;;6.25;;
52956;SDS011;38819;42.692;23.342;2023-06-14T02:15:57;9.52;;;6.03;;
52956;SDS011;38819;42.692;23.342;2023-06-14T02:18:24;6.70;;;6.15;;
52956;SDS011;38819;42.692;23.342;2023-06-14T02:20:50;7.03;;;6.30;;
52956;SDS011;38819;42.692;23.342;2023-06-14T02:23:15;7.10;;;6.18;;
52956;SDS011;38819;42.692;23.342;2023-06-14T02:25:41;7.30;;;6.25;;
52956;SDS011;38819;42.692;23.342;2023-06-14T02:28:08;7.85;;;5.82;;
52956;SDS011;38819;42.692;23.342;2023-06-14T02:30:33;6.60;;;6.00;;
52956;SDS011;38819;42.692;23.342;2023-06-14T02:32:58;6.93;;;6.18;;
52956;SDS011;38819;42.692;23.342;2023-06-14T02:35:24;6.80;;;6.07;;
52956;SDS011;38819;42.692;23.342;2023-06-14T02:37:51;11.07;;;5.80;;
52956;SDS011;38819;42.692;23.342;2023-06-14T02:40:17;8.15;;;6.20;;
52956;SDS011;38819;42.692;23.342;2023-06-14T02:42:43;6.38;;;5.88;;
52956;SDS011;38819;42.692;23.342;2023-06-14T02:45:09;9.52;;;6.07;;
52956;SDS011;38819;42.692;23.342;2023-06-14T02:47:34;8.13;;;6.05;;
52956;SDS011;38819;42.692;23.342;2023-06-14T02:50:00;6.30;;;5.80;;
52956;SDS011;38819;42.692;23.342;2023-06-14T02:52:27;6.13;;;5.63;;
52956;SDS011;38819;42.692;23.342;2023-06-14T02:54:53;9.52;;;5.30;;
52956;SDS011;38819;42.692;23.342;2023-06-14T02:57:19;7.03;;;5.85;;
52956;SDS011;38819;42.692;23.342;2023-06-14T02:59:45;7.88;;;5.38;;
52956;SDS011;38819;42.692;23.342;2023-06-14T03:02:11;7.65;;;6.30;;
52956;SDS011;38819;42.692;23.342;2023-06-14T03:04:36;9.07;;;5.70;;
52956;SDS011;38819;42.692;23.342;2023-06-14T03:07:05;7.07;;;6.10;;
52956;SDS011;38819;42.692;23.342;2023-06-14T03:09:37;7.82;;;5.80;;
52956;SDS011;38819;42.692;23.342;2023-06-14T03:12:03;7.72;;;6.90;;
52956;SDS011;38819;42.692;23.342;2023-06-14T03:14:29;6.50;;;5.60;;
52956;SDS011;38819;42.692;23.342;2023-06-14T03:16:56;9.07;;;5.68;;
52956;SDS011;38819;42.692;23.342;2023-06-14T03:19:22;6.38;;;5.65;;
52956;SDS011;38819;42.692;23.342;2023-06-14T03:21:48;7.80;;;6.15;;
52956;SDS011;38819;42.692;23.342;2023-06-14T03:24:14;13.02;;;6.28;;
52956;SDS011;38819;42.692;23.342;2023-06-14T03:26:41;12.40;;;6.00;;
52956;SDS011;38819;42.692;23.342;2023-06-14T03:29:07;14.80;;;6.80;;
52956;SDS011;38819;42.692;23.342;2023-06-14T03:31:33;8.35;;;6.28;;
52956;SDS011;38819;42.692;23.342;2023-06-14T03:36:25;7.47;;;5.90;;
52956;SDS011;38819;42.692;23.342;2023-06-14T03:38:51;8.18;;;6.50;;
52956;SDS011;38819;42.692;23.342;2023-06-14T03:41:16;7.88;;;6.28;;
52956;SDS011;38819;42.692;23.342;2023-06-14T03:43:42;6.97;;;6.30;;
52956;SDS011;38819;42.692;23.342;2023-06-14T03:46:07;9.50;;;6.55;;
52956;SDS011;38819;42.692;23.342;2023-06-14T03:48:32;6.75;;;6.03;;
52956;SDS011;38819;42.692;23.342;2023-06-14T03:50:58;9.20;;;7.25;;
52956;SDS011;38819;42.692;23.342;2023-06-14T03:53:23;9.80;;;6.53;;
52956;SDS011;38819;42.692;23.342;2023-06-14T03:55:49;7.82;;;6.85;;
52956;SDS011;38819;42.692;23.342;2023-06-14T03:58:17;11.35;;;6.88;;
52956;SDS011;38819;42.692;23.342;2023-06-14T04:00:42;9.68;;;6.93;;
52956;SDS011;38819;42.692;23.342;2023-06-14T04:03:08;9.43;;;6.63;;
52956;SDS011;38819;42.692;23.342;2023-06-14T04:05:34;8.82;;;6.45;;
52956;SDS011;38819;42.692;23.342;2023-06-14T04:07:59;8.98;;;6.78;;
52956;SDS011;38819;42.692;23.342;2023-06-14T04:10:25;8.20;;;6.65;;
52956;SDS011;38819;42.692;23.342;2023-06-14T04:12:51;8.23;;;6.88;;
52956;SDS011;38819;42.692;23.342;2023-06-14T04:15:17;13.40;;;6.85;;
52956;SDS011;38819;42.692;23.342;2023-06-14T04:17:42;9.40;;;6.50;;
52956;SDS011;38819;42.692;23.342;2023-06-14T04:20:08;12.85;;;7.00;;
52956;SDS011;38819;42.692;23.342;2023-06-14T04:22:35;10.10;;;6.53;;
52956;SDS011;38819;42.692;23.342;2023-06-14T04:25:01;10.30;;;6.57;;
52956;SDS011;38819;42.692;23.342;2023-06-14T04:27:27;15.00;;;7.28;;
52956;SDS011;38819;42.692;23.342;2023-06-14T04:29:54;6.95;;;6.05;;
52956;SDS011;38819;42.692;23.342;2023-06-14T04:32:24;9.77;;;6.20;;
52956;SDS011;38819;42.692;23.342;2023-06-14T04:34:53;12.50;;;6.83;;
52956;SDS011;38819;42.692;23.342;2023-06-14T04:37:19;7.03;;;6.43;;
52956;SDS011;38819;42.692;23.342;2023-06-14T04:39:46;12.60;;;7.05;;
52956;SDS011;38819;42.692;23.342;2023-06-14T04:42:12;10.50;;;7.10;;
52956;SDS011;38819;42.692;23.342;2023-06-14T04:44:40;10.90;;;7.57;;
52956;SDS011;38819;42.692;23.342;2023-06-14T04:47:06;10.70;;;8.13;;
52956;SDS011;38819;42.692;23.342;2023-06-14T04:49:32;15.98;;;7.72;;
52956;SDS011;38819;42.692;23.342;2023-06-14T04:51:59;9.75;;;7.45;;
52956;SDS011;38819;42.692;23.342;2023-06-14T04:56:51;12.77;;;7.25;;
52956;SDS011;38819;42.692;23.342;2023-06-14T04:59:18;9.07;;;7.40;;
52956;SDS011;38819;42.692;23.342;2023-06-14T05:01:44;10.60;;;6.97;;
52956;SDS011;38819;42.692;23.342;2023-06-14T05:04:16;11.30;;;7.88;;
52956;SDS011;38819;42.692;23.342;2023-06-14T05:06:43;15.57;;;8.07;;
52956;SDS011;38819;42.692;23.342;2023-06-14T05:09:10;12.52;;;7.32;;
52956;SDS011;38819;42.692;23.342;2023-06-14T05:11:36;11.70;;;8.27;;
52956;SDS011;38819;42.692;23.342;2023-06-14T05:14:01;15.40;;;8.13;;
52956;SDS011;38819;42.692;23.342;2023-06-14T05:16:27;13.52;;;8.77;;
52956;SDS011;38819;42.692;23.342;2023-06-14T05:18:54;13.77;;;8.77;;
52956;SDS011;38819;42.692;23.342;2023-06-14T05:21:20;11.25;;;8.63;;
52956;SDS011;38819;42.692;23.342;2023-06-14T05:23:45;14.88;;;9.10;;
52956;SDS011;38819;42.692;23.342;2023-06-14T05:26:11;19.75;;;10.10;;
52956;SDS011;38819;42.692;23.342;2023-06-14T05:28:36;12.77;;;9.35;;
52956;SDS011;38819;42.692;23.342;2023-06-14T05:31:02;10.52;;;9.40;;
52956;SDS011;38819;42.692;23.342;2023-06-14T05:33:28;12.98;;;9.40;;
52956;SDS011;38819;42.692;23.342;2023-06-14T05:35:53;10.93;;;9.10;;
52956;SDS011;38819;42.692;23.342;2023-06-14T05:38:19;15.23;;;10.25;;
52956;SDS011;38819;42.692;23.342;2023-06-14T05:40:44;16.83;;;10.85;;
52956;SDS011;38819;42.692;23.342;2023-06-14T05:43:10;12.10;;;9.95;;
52956;SDS011;38819;42.692;23.342;2023-06-14T05:45:36;14.40;;;11.13;;
52956;SDS011;38819;42.692;23.342;2023-06-14T05:48:01;18.58;;;11.70;;
52956;SDS011;38819;42.692;23.342;2023-06-14T05:50:27;21.67;;;13.65;;
52956;SDS011;38819;42.692;23.342;2023-06-14T05:52:53;36.13;;;28.20;;
52956;SDS011;38819;42.692;23.342;2023-06-14T05:55:18;18.98;;;12.63;;
52956;SDS011;38819;42.692;23.342;2023-06-14T05:57:43;13.95;;;11.25;;
52956;SDS011;38819;42.692;23.342;2023-06-14T06:00:09;15.30;;;10.50;;
52956;SDS011;38819;42.692;23.342;2023-06-14T06:02:40;12.68;;;11.38;;
52956;SDS011;38819;42.692;23.342;2023-06-14T06:05:08;15.48;;;11.95;;
52956;SDS011;38819;42.692;23.342;2023-06-14T06:07:34;15.90;;;12.07;;
52956;SDS011;38819;42.692;23.342;2023-06-14T06:09:59;18.90;;;12.00;;
52956;SDS011;38819;42.692;23.342;2023-06-14T06:12:25;17.98;;;11.23;;
52956;SDS011;38819;42.692;23.342;2023-06-14T06:14:50;14.40;;;11.15;;
52956;SDS011;38819;42.692;23.342;2023-06-14T06:17:15;20.40;;;11.90;;
52956;SDS011;38819;42.692;23.342;2023-06-14T06:19:41;14.65;;;11.27;;
52956;SDS011;38819;42.692;23.342;2023-06-14T06:22:06;21.35;;;11.40;;
52956;SDS011;38819;42.692;23.342;2023-06-14T06:24:33;17.48;;;10.38;;
52956;SDS011;38819;42.692;23.342;2023-06-14T06:26:58;15.35;;;10.95;;
52956;SDS011;38819;42.692;23.342;2023-06-14T06:29:23;21.33;;;11.20;;
52956;SDS011;38819;42.692;23.342;2023-06-14T06:31:49;14.40;;;10.77;;
52956;SDS011;38819;42.692;23.342;2023-06-14T06:34:14;12.25;;;10.88;;
52956;SDS011;38819;42.692;23.342;2023-06-14T06:36:40;13.70;;;11.30;;
52956;SDS011;38819;42.692;23.342;2023-06-14T06:39:05;17.17;;;11.50;;
52956;SDS011;38819;42.692;23.342;2023-06-14T06:41:35;20.35;;;12.85;;
52956;SDS011;38819;42.692;23.342;2023-06-14T06:44:02;17.48;;;11.93;;
52956;SDS011;38819;42.692;23.342;2023-06-14T06:46:28;17.70;;;12.70;;
52956;SDS011;38819;42.692;23.342;2023-06-14T06:48:53;15.55;;;12.07;;
52956;SDS011;38819;42.692;23.342;2023-06-14T06:51:19;18.10;;;12.73;;
52956;SDS011;38819;42.692;23.342;2023-06-14T06:53:45;21.67;;;12.52;;
52956;SDS011;38819;42.692;23.342;2023-06-14T06:56:20;46.10;;;16.10;;
52956;SDS011;38819;42.692;23.342;2023-06-14T06:58:48;24.65;;;13.95;;
52956;SDS011;38819;42.692;23.342;2023-06-14T07:01:14;17.73;;;12.65;;
52956;SDS011;38819;42.692;23.342;2023-06-14T07:03:40;22.75;;;13.77;;
52956;SDS011;38819;42.692;23.342;2023-06-14T07:06:05;20.23;;;15.05;;
52956;SDS011;38819;42.692;23.342;2023-06-14T07:08:30;28.20;;;15.15;;
52956;SDS011;38819;42.692;23.342;2023-06-14T07:10:56;25.55;;;15.20;;
52956;SDS011;38819;42.692;23.342;2023-06-14T07:13:21;22.25;;;17.83;;
52956;SDS011;38819;42.692;23.342;2023-06-14T07:15:47;26.70;;;17.52;;
52956;SDS011;38819;42.692;23.342;2023-06-14T07:18:12;24.15;;;17.70;;
52956;SDS011;38819;42.692;23.342;2023-06-14T07:20:38;19.48;;;16.50;;
52956;SDS011;38819;42.692;23.342;2023-06-14T07:23:03;24.05;;;18.25;;
52956;SDS011;38819;42.692;23.342;2023-06-14T07:25:30;24.02;;;19.00;;
52956;SDS011;38819;42.692;23.342;2023-06-14T07:27:56;26.98;;;19.20;;
52956;SDS011;38819;42.692;23.342;2023-06-14T07:30:21;28.38;;;18.60;;
52956;SDS011;38819;42.692;23.342;2023-06-14T07:32:50;22.27;;;18.30;;
52956;SDS011;38819;42.692;23.342;2023-06-14T07:35:17;36.93;;;18.07;;
52956;SDS011;38819;42.692;23.342;2023-06-14T07:37:43;25.48;;;17.55;;
52956;SDS011;38819;42.692;23.342;2023-06-14T07:40:08;20.48;;;17.45;;
52956;SDS011;38819;42.692;23.342;2023-06-14T07:42:35;23.83;;;18.50;;
52956;SDS011;38819;42.692;23.342;2023-06-14T07:45:01;20.77;;;16.45;;
52956;SDS011;38819;42.692;23.342;2023-06-14T07:47:29;42.08;;;18.60;;
52956;SDS011;38819;42.692;23.342;2023-06-14T07:49:55;21.88;;;16.67;;
52956;SDS011;38819;42.692;23.342;2023-06-14T07:52:20;23.63;;;16.30;;
52956;SDS011;38819;42.692;23.342;2023-06-14T07:54:46;22.25;;;15.68;;
52956;SDS011;38819;42.692;23.342;2023-06-14T07:57:11;21.80;;;14.98;;
52956;SDS011;38819;42.692;23.342;2023-06-14T07:59:36;19.40;;;12.68;;
52956;SDS011;38819;42.692;23.342;2023-06-14T08:02:02;17.58;;;12.75;;
52956;SDS011;38819;42.692;23.342;2023-06-14T08:04:28;13.00;;;11.27;;
52956;SDS011;38819;42.692;23.342;2023-06-14T08:06:53;18.85;;;12.43;;
52956;SDS011;38819;42.692;23.342;2023-06-14T08:09:18;18.42;;;14.48;;
52956;SDS011;38819;42.692;23.342;2023-06-14T08:11:44;15.93;;;14.20;;
52956;SDS011;38819;42.692;23.342;2023-06-14T08:14:09;26.45;;;15.57;;
52956;SDS011;38819;42.692;23.342;2023-06-14T08:16:35;18.65;;;13.82;;
52956;SDS011;38819;42.692;23.342;2023-06-14T08:19:00;19.17;;;13.77;;
52956;SDS011;38819;42.692;23.342;2023-06-14T08:21:26;16.70;;;13.25;;
52956;SDS011;38819;42.692;23.342;2023-06-14T08:23:54;14.88;;;12.68;;
52956;SDS011;38819;42.692;23.342;2023-06-14T08:26:20;17.08;;;12.32;;
52956;SDS011;38819;42.692;23.342;2023-06-14T08:28:46;19.13;;;11.98;;
52956;SDS011;38819;42.692;23.342;2023-06-14T08:31:11;15.15;;;12.00;;
52956;SDS011;38819;42.692;23.342;2023-06-14T08:33:37;13.23;;;10.98;;
52956;SDS011;38819;42.692;23.342;2023-06-14T08:36:04;14.32;;;11.57;;
52956;SDS011;38819;42.692;23.342;2023-06-14T08:38:29;15.70;;;11.50;;
52956;SDS011;38819;42.692;23.342;2023-06-14T08:40:57;10.73;;;9.23;;
52956;SDS011;38819;42.692;23.342;2023-06-14T08:43:23;13.07;;;10.32;;
52956;SDS011;38819;42.692;23.342;2023-06-14T08:45:49;13.82;;;10.68;;
52956;SDS011;38819;42.692;23.342;2023-06-14T08:48:22;17.25;;;9.68;;
52956;SDS011;38819;42.692;23.342;2023-06-14T08:50:51;11.63;;;9.93;;
52956;SDS011;38819;42.692;23.342;2023-06-14T08:53:19;11.07;;;9.70;;
52956;SDS011;38819;42.692;23.342;2023-06-14T08:55:46;13.48;;;9.60;;
52956;SDS011;38819;42.692;23.342;2023-06-14T08:58:12;12.25;;;11.05;;
52956;SDS011;38819;42.692;23.342;2023-06-14T09:00:39;11.50;;;9.67;;
52956;SDS011;38819;42.692;23.342;2023-06-14T09:03:07;14.27;;;10.07;;
52956;SDS011;38819;42.692;23.342;2023-06-14T09:05:38;19.70;;;10.30;;
52956;SDS011;38819;42.692;23.342;2023-06-14T09:08:03;14.60;;;10.00;;
52956;SDS011;38819;42.692;23.342;2023-06-14T09:10:30;11.30;;;9.65;;
52956;SDS011;38819;42.692;23.342;2023-06-14T09:13:02;11.30;;;9.48;;
52956;SDS011;38819;42.692;23.342;2023-06-14T09:15:28;14.30;;;10.63;;
52956;SDS011;38819;42.692;23.342;2023-06-14T09:17:55;12.40;;;11.15;;
52956;SDS011;38819;42.692;23.342;2023-06-14T09:20:21;15.35;;;11.50;;
52956;SDS011;38819;42.692;23.342;2023-06-14T09:22:49;11.55;;;9.98;;
52956;SDS011;38819;42.692;23.342;2023-06-14T09:25:15;13.07;;;10.95;;
52956;SDS011;38819;42.692;23.342;2023-06-14T09:27:41;12.40;;;10.65;;
52956;SDS011;38819;42.692;23.342;2023-06-14T09:30:08;14.93;;;10.38;;
52956;SDS011;38819;42.692;23.342;2023-06-14T09:32:38;14.68;;;10.05;;
52956;SDS011;38819;42.692;23.342;2023-06-14T09:35:08;12.70;;;10.63;;
52956;SDS011;38819;42.692;23.342;2023-06-14T09:37:34;13.10;;;10.32;;
52956;SDS011;38819;42.692;23.342;2023-06-14T09:40:00;13.80;;;10.77;;
52956;SDS011;38819;42.692;23.342;2023-06-14T09:42:28;11.82;;;10.07;;
52956;SDS011;38819;42.692;23.342;2023-06-14T09:44:55;13.97;;;10.53;;
52956;SDS011;38819;42.692;23.342;2023-06-14T09:47:22;12.00;;;10.45;;
52956;SDS011;38819;42.692;23.342;2023-06-14T09:49:48;11.25;;;10.15;;
52956;SDS011;38819;42.692;23.342;2023-06-14T09:52:15;14.82;;;10.82;;
52956;SDS011;38819;42.692;23.342;2023-06-14T09:54:44;11.50;;;10.23;;
52956;SDS011;38819;42.692;23.342;2023-06-14T09:57:21;11.88;;;10.63;;
52956;SDS011;38819;42.692;23.342;2023-06-14T09:59:47;11.68;;;9.75;;
52956;SDS011;38819;42.692;23.342;2023-06-14T10:02:29;12.15;;;10.85;;
52956;SDS011;38819;42.692;23.342;2023-06-14T10:05:07;12.52;;;9.82;;
52956;SDS011;38819;42.692;23.342;2023-06-14T10:07:35;11.52;;;10.35;;
52956;SDS011;38819;42.692;23.342;2023-06-14T10:10:05;11.13;;;9.93;;
52956;SDS011;38819;42.692;23.342;2023-06-14T10:12:31;11.27;;;10.07;;
52956;SDS011;38819;42.692;23.342;2023-06-14T10:14:57;14.27;;;10.30;;
52956;SDS011;38819;42.692;23.342;2023-06-14T10:17:25;14.90;;;10.20;;
52956;SDS011;38819;42.692;23.342;2023-06-14T10:22:49;12.82;;;9.55;;
52956;SDS011;38819;42.692;23.342;2023-06-14T10:25:28;13.45;;;9.13;;
52956;SDS011;38819;42.692;23.342;2023-06-14T10:33:36;11.40;;;9.60;;
52956;SDS011;38819;42.692;23.342;2023-06-14T10:41:52;11.90;;;10.15;;
52956;SDS011;38819;42.692;23.342;2023-06-14T10:46:53;10.18;;;9.18;;
52956;SDS011;38819;42.692;23.342;2023-06-14T10:49:20;10.00;;;9.00;;
52956;SDS011;38819;42.692;23.342;2023-06-14T10:52:16;11.07;;;9.48;;
52956;SDS011;38819;42.692;23.342;2023-06-14T10:57:41;13.20;;;9.27;;
52956;SDS011;38819;42.692;23.342;2023-06-14T11:00:08;15.63;;;9.82;;
52956;SDS011;38819;42.692;23.342;2023-06-14T11:05:28;13.25;;;9.75;;
52956;SDS011;38819;42.692;23.342;2023-06-14T11:10:42;9.95;;;8.95;;
52956;SDS011;38819;42.692;23.342;2023-06-14T11:13:10;11.15;;;9.00;;
52956;SDS011;38819;42.692;23.342;2023-06-14T11:15:36;11.82;;;10.25;;
52956;SDS011;38819;42.692;23.342;2023-06-14T11:18:04;9.97;;;8.97;;
52956;SDS011;38819;42.692;23.342;2023-06-14T11:20:34;10.32;;;9.00;;
52956;SDS011;38819;42.692;23.342;2023-06-14T11:23:02;15.57;;;9.15;;
52956;SDS011;38819;42.692;23.342;2023-06-14T11:25:28;11.55;;;8.80;;
52956;SDS011;38819;42.692;23.342;2023-06-14T11:27:54;10.27;;;8.95;;
52956;SDS011;38819;42.692;23.342;2023-06-14T11:30:20;10.60;;;8.60;;
52956;SDS011;38819;42.692;23.342;2023-06-14T11:32:47;9.43;;;8.23;;
52956;SDS011;38819;42.692;23.342;2023-06-14T11:35:13;9.05;;;8.10;;
52956;SDS011;38819;42.692;23.342;2023-06-14T11:37:38;9.95;;;8.75;;
52956;SDS011;38819;42.692;23.342;2023-06-14T11:40:07;11.73;;;8.48;;
52956;SDS011;38819;42.692;23.342;2023-06-14T11:42:35;9.15;;;8.02;;
52956;SDS011;38819;42.692;23.342;2023-06-14T11:45:02;9.30;;;8.35;;
52956;SDS011;38819;42.692;23.342;2023-06-14T11:47:31;8.73;;;7.93;;
52956;SDS011;38819;42.692;23.342;2023-06-14T11:49:58;9.40;;;8.50;;
52956;SDS011;38819;42.692;23.342;2023-06-14T11:52:24;11.85;;;8.55;;
52956;SDS011;38819;42.692;23.342;2023-06-14T11:54:50;10.88;;;8.00;;
52956;SDS011;38819;42.692;23.342;2023-06-14T11:57:17;9.48;;;8.48;;
52956;SDS011;38819;42.692;23.342;2023-06-14T11:59:43;13.68;;;8.32;;
52956;SDS011;38819;42.692;23.342;2023-06-14T12:02:09;11.30;;;8.23;;
52956;SDS011;38819;42.692;23.342;2023-06-14T12:04:40;7.82;;;7.05;;
52956;SDS011;38819;42.692;23.342;2023-06-14T12:07:10;7.78;;;7.00;;
52956;SDS011;38819;42.692;23.342;2023-06-14T12:09:40;8.52;;;7.72;;
52956;SDS011;38819;42.692;23.342;2023-06-14T12:12:08;8.20;;;7.07;;
52956;SDS011;38819;42.692;23.342;2023-06-14T12:14:34;9.75;;;6.93;;
52956;SDS011;38819;42.692;23.342;2023-06-14T12:17:05;8.35;;;7.22;;
52956;SDS011;38819;42.692;23.342;2023-06-14T12:19:44;7.03;;;6.43;;
52956;SDS011;38819;42.692;23.342;2023-06-14T12:22:11;7.63;;;6.00;;
52956;SDS011;38819;42.692;23.342;2023-06-14T12:24:37;7.70;;;6.63;;
52956;SDS011;38819;42.692;23.342;2023-06-14T12:27:06;9.35;;;6.93;;
52956;SDS011;38819;42.692;23.342;2023-06-14T12:29:31;7.57;;;6.07;;
52956;SDS011;38819;42.692;23.342;2023-06-14T12:31:57;6.93;;;6.32;;
52956;SDS011;38819;42.692;23.342;2023-06-14T12:34:26;9.13;;;6.30;;
52956;SDS011;38819;42.692;23.342;2023-06-14T12:36:52;7.88;;;6.80;;
52956;SDS011;38819;42.692;23.342;2023-06-14T12:41:45;11.87;;;7.87;;
52956;SDS011;38819;42.692;23.342;2023-06-14T12:44:11;8.05;;;5.75;;
52956;SDS011;38819;42.692;23.342;2023-06-14T12:46:37;6.50;;;5.57;;
52956;SDS011;38819;42.692;23.342;2023-06-14T12:49:07;10.90;;;6.38;;
52956;SDS011;38819;42.692;23.342;2023-06-14T12:51:35;8.93;;;6.40;;
52956;SDS011;38819;42.692;23.342;2023-06-14T12:54:01;13.65;;;5.95;;
52956;SDS011;38819;42.692;23.342;2023-06-14T12:56:26;11.65;;;7.88;;
52956;SDS011;38819;42.692;23.342;2023-06-14T12:58:52;7.18;;;6.43;;
52956;SDS011;38819;42.692;23.342;2023-06-14T13:01:18;7.95;;;6.57;;
52956;SDS011;38819;42.692;23.342;2023-06-14T13:03:43;6.82;;;6.13;;
52956;SDS011;38819;42.692;23.342;2023-06-14T13:06:10;10.88;;;5.88;;
52956;SDS011;38819;42.692;23.342;2023-06-14T13:08:36;5.65;;;5.15;;
52956;SDS011;38819;42.692;23.342;2023-06-14T13:11:01;7.30;;;5.32;;
52956;SDS011;38819;42.692;23.342;2023-06-14T13:13:26;7.30;;;6.25;;
52956;SDS011;38819;42.692;23.342;2023-06-14T13:15:52;11.73;;;5.10;;
52956;SDS011;38819;42.692;23.342;2023-06-14T13:18:17;6.78;;;5.32;;
52956;SDS011;38819;42.692;23.342;2023-06-14T13:20:43;10.63;;;7.38;;
52956;SDS011;38819;42.692;23.342;2023-06-14T13:23:08;14.10;;;7.00;;
52956;SDS011;38819;42.692;23.342;2023-06-14T13:25:35;17.80;;;6.78;;
52956;SDS011;38819;42.692;23.342;2023-06-14T13:28:01;9.60;;;7.38;;
52956;SDS011;38819;42.692;23.342;2023-06-14T13:30:27;7.70;;;7.00;;
52956;SDS011;38819;42.692;23.342;2023-06-14T13:32:53;14.23;;;8.80;;
52956;SDS011;38819;42.692;23.342;2023-06-14T13:35:18;7.82;;;6.68;;
52956;SDS011;38819;42.692;23.342;2023-06-14T13:37:44;9.68;;;6.85;;
52956;SDS011;38819;42.692;23.342;2023-06-14T13:40:10;10.90;;;8.35;;
52956;SDS011;38819;42.692;23.342;2023-06-14T13:42:36;11.05;;;7.40;;
52956;SDS011;38819;42.692;23.342;2023-06-14T13:45:02;11.82;;;9.55;;
52956;SDS011;38819;42.692;23.342;2023-06-14T13:47:28;19.20;;;10.55;;
52956;SDS011;38819;42.692;23.342;2023-06-14T13:49:54;11.07;;;7.70;;
52956;SDS011;38819;42.692;23.342;2023-06-14T13:52:20;9.93;;;7.45;;
52956;SDS011;38819;42.692;23.342;2023-06-14T13:54:46;14.15;;;8.52;;
52956;SDS011;38819;42.692;23.342;2023-06-14T13:57:11;14.15;;;8.80;;
52956;SDS011;38819;42.692;23.342;2023-06-14T13:59:38;16.67;;;11.85;;
52956;SDS011;38819;42.692;23.342;2023-06-14T14:02:04;15.80;;;11.10;;
52956;SDS011;38819;42.692;23.342;2023-06-14T14:04:30;20.00;;;14.45;;
52956;SDS011;38819;42.692;23.342;2023-06-14T14:06:56;15.70;;;11.27;;
52956;SDS011;38819;42.692;23.342;2023-06-14T14:09:21;19.65;;;13.52;;
52956;SDS011;38819;42.692;23.342;2023-06-14T14:11:47;13.98;;;12.38;;
52956;SDS011;38819;42.692;23.342;2023-06-14T14:14:13;18.15;;;12.55;;
52956;SDS011;38819;42.692;23.342;2023-06-14T14:16:38;14.85;;;10.32;;
52956;SDS011;38819;42.692;23.342;2023-06-14T14:19:04;16.65;;;12.48;;
52956;SDS011;38819;42.692;23.342;2023-06-14T14:21:30;10.63;;;8.77;;
52956;SDS011;38819;42.692;23.342;2023-06-14T14:23:56;11.45;;;9.85;;
52956;SDS011;38819;42.692;23.342;2023-06-14T14:26:21;12.15;;;10.07;;
52956;SDS011;38819;42.692;23.342;2023-06-14T14:28:48;11.63;;;9.82;;
52956;SDS011;38819;42.692;23.342;2023-06-14T14:31:13;9.05;;;7.78;;
52956;SDS011;38819;42.692;23.342;2023-06-14T14:33:39;9.15;;;6.90;;
52956;SDS011;38819;42.692;23.342;2023-06-14T14:36:04;6.82;;;6.22;;
52956;SDS011;38819;42.692;23.342;2023-06-14T14:38:32;9.07;;;6.90;;
52956;SDS011;38819;42.692;23.342;2023-06-14T14:40:57;10.07;;;6.82;;
52956;SDS011;38819;42.692;23.342;2023-06-14T14:43:23;7.88;;;6.75;;
52956;SDS011;38819;42.692;23.342;2023-06-14T14:45:48;12.98;;;8.60;;
52956;SDS011;38819;42.692;23.342;2023-06-14T14:48:14;6.35;;;5.20;;
52956;SDS011;38819;42.692;23.342;2023-06-14T14:50:39;7.13;;;5.82;;
52956;SDS011;38819;42.692;23.342;2023-06-14T14:53:05;6.45;;;5.65;;
52956;SDS011;38819;42.692;23.342;2023-06-14T14:55:31;7.10;;;5.13;;
52956;SDS011;38819;42.692;23.342;2023-06-14T14:57:59;5.55;;;4.70;;
52956;SDS011;38819;42.692;23.342;2023-06-14T15:00:25;5.28;;;4.20;;
52956;SDS011;38819;42.692;23.342;2023-06-14T15:02:51;9.10;;;4.80;;